sensor_id;sensor_type;location;lat;lon;timestamp;P1;durP1;ratioP1;P2;durP2;ratioP2
5937;SDS011;2994;51.220;4.412;2023-04-25T00:01:14;8.90;;;3.37;;
5937;SDS011;2994;51.220;4.412;2023-04-25T00:03:39;6.67;;;3.87;;
5937;SDS011;2994;51.220;4.412;2023-04-25T00:06:05;7.50;;;4.07;;
5937;SDS011;2994;51.220;4.412;2023-04-25T00:08:31;8.40;;;3.97;;
5937;SDS011;2994;51.220;4.412;2023-04-25T00:10:57;7.23;;;3.47;;
5937;SDS011;2994;51.220;4.412;2023-04-25T00:13:23;6.10;;;3.77;;
5937;SDS011;2994;51.220;4.412;2023-04-25T00:15:52;13.00;;;4.60;;
5937;SDS011;2994;51.220;4.412;2023-04-25T00:18:18;8.27;;;4.30;;
5937;SDS011;2994;51.220;4.412;2023-04-25T00:20:45;6.80;;;3.63;;
5937;SDS011;2994;51.220;4.412;2023-04-25T00:23:15;6.57;;;3.80;;
5937;SDS011;2994;51.220;4.412;2023-04-25T00:25:42;12.00;;;4.20;;
5937;SDS011;2994;51.220;4.412;2023-04-25T00:28:11;7.27;;;4.03;;
5937;SDS011;2994;51.220;4.412;2023-04-25T00:30:37;9.33;;;4.23;;
5937;SDS011;2994;51.220;4.412;2023-04-25T00:33:03;7.57;;;4.10;;
5937;SDS011;2994;51.220;4.412;2023-04-25T00:35:32;6.30;;;4.10;;
5937;SDS011;2994;51.220;4.412;2023-04-25T00:37:58;7.93;;;4.13;;
5937;SDS011;2994;51.220;4.412;2023-04-25T00:40:24;8.27;;;3.27;;
5937;SDS011;2994;51.220;4.412;2023-04-25T00:42:51;4.37;;;2.50;;
5937;SDS011;2994;51.220;4.412;2023-04-25T00:45:18;8.63;;;5.93;;
5937;SDS011;2994;51.220;4.412;2023-04-25T00:47:44;9.67;;;4.00;;
5937;SDS011;2994;51.220;4.412;2023-04-25T00:50:10;7.87;;;4.17;;
5937;SDS011;2994;51.220;4.412;2023-04-25T00:52:40;7.27;;;4.40;;
5937;SDS011;2994;51.220;4.412;2023-04-25T00:55:08;9.30;;;3.80;;
5937;SDS011;2994;51.220;4.412;2023-04-25T00:57:38;5.53;;;3.23;;
5937;SDS011;2994;51.220;4.412;2023-04-25T01:00:05;6.33;;;3.67;;
5937;SDS011;2994;51.220;4.412;2023-04-25T01:02:32;9.00;;;4.60;;
5937;SDS011;2994;51.220;4.412;2023-04-25T01:04:58;13.20;;;4.10;;
5937;SDS011;2994;51.220;4.412;2023-04-25T01:07:24;7.87;;;4.33;;
5937;SDS011;2994;51.220;4.412;2023-04-25T01:09:59;14.10;;;5.27;;
5937;SDS011;2994;51.220;4.412;2023-04-25T01:12:25;6.70;;;4.33;;
5937;SDS011;2994;51.220;4.412;2023-04-25T01:14:53;8.13;;;4.60;;
5937;SDS011;2994;51.220;4.412;2023-04-25T01:17:19;12.43;;;5.43;;
5937;SDS011;2994;51.220;4.412;2023-04-25T01:19:44;12.00;;;3.80;;
5937;SDS011;2994;51.220;4.412;2023-04-25T01:22:14;9.40;;;4.70;;
5937;SDS011;2994;51.220;4.412;2023-04-25T01:24:39;6.13;;;4.37;;
5937;SDS011;2994;51.220;4.412;2023-04-25T01:27:05;7.87;;;4.47;;
5937;SDS011;2994;51.220;4.412;2023-04-25T01:29:32;9.03;;;5.03;;
5937;SDS011;2994;51.220;4.412;2023-04-25T01:31:58;9.53;;;4.53;;
5937;SDS011;2994;51.220;4.412;2023-04-25T01:34:24;10.70;;;5.07;;
5937;SDS011;2994;51.220;4.412;2023-04-25T01:36:53;7.23;;;4.37;;
5937;SDS011;2994;51.220;4.412;2023-04-25T01:39:19;12.83;;;5.90;;
5937;SDS011;2994;51.220;4.412;2023-04-25T01:41:48;6.93;;;6.00;;
5937;SDS011;2994;51.220;4.412;2023-04-25T01:44:16;8.67;;;4.57;;
5937;SDS011;2994;51.220;4.412;2023-04-25T01:46:42;8.47;;;5.33;;
5937;SDS011;2994;51.220;4.412;2023-04-25T01:49:07;12.23;;;5.37;;
5937;SDS011;2994;51.220;4.412;2023-04-25T01:51:33;8.63;;;4.23;;
5937;SDS011;2994;51.220;4.412;2023-04-25T01:53:59;8.67;;;5.30;;
5937;SDS011;2994;51.220;4.412;2023-04-25T01:56:25;10.40;;;4.50;;
5937;SDS011;2994;51.220;4.412;2023-04-25T01:58:54;8.93;;;5.57;;
5937;SDS011;2994;51.220;4.412;2023-04-25T02:01:23;7.93;;;4.90;;
5937;SDS011;2994;51.220;4.412;2023-04-25T02:03:51;11.20;;;5.27;;
5937;SDS011;2994;51.220;4.412;2023-04-25T02:06:16;10.50;;;4.63;;
5937;SDS011;2994;51.220;4.412;2023-04-25T02:08:42;10.63;;;4.83;;
5937;SDS011;2994;51.220;4.412;2023-04-25T02:11:07;5.67;;;4.53;;
5937;SDS011;2994;51.220;4.412;2023-04-25T02:13:33;9.73;;;4.53;;
5937;SDS011;2994;51.220;4.412;2023-04-25T02:15:58;7.27;;;4.23;;
5937;SDS011;2994;51.220;4.412;2023-04-25T02:18:23;8.10;;;4.03;;
5937;SDS011;2994;51.220;4.412;2023-04-25T02:20:50;12.80;;;6.13;;
5937;SDS011;2994;51.220;4.412;2023-04-25T02:23:18;10.13;;;5.47;;
5937;SDS011;2994;51.220;4.412;2023-04-25T02:25:44;9.57;;;4.10;;
5937;SDS011;2994;51.220;4.412;2023-04-25T02:28:10;6.57;;;3.80;;
5937;SDS011;2994;51.220;4.412;2023-04-25T02:30:35;9.30;;;5.00;;
5937;SDS011;2994;51.220;4.412;2023-04-25T02:33:01;8.80;;;4.90;;
5937;SDS011;2994;51.220;4.412;2023-04-25T02:35:27;7.83;;;4.10;;
5937;SDS011;2994;51.220;4.412;2023-04-25T02:37:52;7.03;;;4.30;;
5937;SDS011;2994;51.220;4.412;2023-04-25T02:40:18;7.83;;;4.90;;
5937;SDS011;2994;51.220;4.412;2023-04-25T02:42:43;10.73;;;4.37;;
5937;SDS011;2994;51.220;4.412;2023-04-25T02:45:10;5.97;;;3.50;;
5937;SDS011;2994;51.220;4.412;2023-04-25T02:47:36;9.30;;;4.73;;
5937;SDS011;2994;51.220;4.412;2023-04-25T02:50:01;12.33;;;6.00;;
5937;SDS011;2994;51.220;4.412;2023-04-25T02:52:27;9.10;;;4.80;;
5937;SDS011;2994;51.220;4.412;2023-04-25T02:54:53;9.37;;;3.87;;
5937;SDS011;2994;51.220;4.412;2023-04-25T02:57:18;9.63;;;4.60;;
5937;SDS011;2994;51.220;4.412;2023-04-25T02:59:44;10.13;;;4.83;;
5937;SDS011;2994;51.220;4.412;2023-04-25T03:02:13;7.70;;;4.17;;
5937;SDS011;2994;51.220;4.412;2023-04-25T03:04:38;9.67;;;4.60;;
5937;SDS011;2994;51.220;4.412;2023-04-25T03:07:04;8.07;;;4.67;;
5937;SDS011;2994;51.220;4.412;2023-04-25T03:09:33;14.60;;;4.67;;
5937;SDS011;2994;51.220;4.412;2023-04-25T03:11:58;7.03;;;4.50;;
5937;SDS011;2994;51.220;4.412;2023-04-25T03:14:24;9.60;;;4.73;;
5937;SDS011;2994;51.220;4.412;2023-04-25T03:16:50;7.67;;;5.07;;
5937;SDS011;2994;51.220;4.412;2023-04-25T03:19:15;11.13;;;4.70;;
5937;SDS011;2994;51.220;4.412;2023-04-25T03:21:42;8.00;;;4.60;;
5937;SDS011;2994;51.220;4.412;2023-04-25T03:24:07;8.00;;;4.20;;
5937;SDS011;2994;51.220;4.412;2023-04-25T03:26:33;9.17;;;4.83;;
5937;SDS011;2994;51.220;4.412;2023-04-25T03:28:59;5.70;;;4.10;;
5937;SDS011;2994;51.220;4.412;2023-04-25T03:31:24;9.87;;;4.63;;
5937;SDS011;2994;51.220;4.412;2023-04-25T03:33:53;9.67;;;4.80;;
5937;SDS011;2994;51.220;4.412;2023-04-25T03:36:18;10.70;;;4.53;;
5937;SDS011;2994;51.220;4.412;2023-04-25T03:38:46;11.40;;;4.23;;
5937;SDS011;2994;51.220;4.412;2023-04-25T03:41:13;10.13;;;4.40;;
5937;SDS011;2994;51.220;4.412;2023-04-25T03:43:38;13.20;;;4.17;;
5937;SDS011;2994;51.220;4.412;2023-04-25T03:46:04;7.73;;;4.50;;
5937;SDS011;2994;51.220;4.412;2023-04-25T03:48:29;11.70;;;3.93;;
5937;SDS011;2994;51.220;4.412;2023-04-25T03:50:55;10.33;;;4.67;;
5937;SDS011;2994;51.220;4.412;2023-04-25T03:53:20;8.80;;;4.97;;
5937;SDS011;2994;51.220;4.412;2023-04-25T03:55:46;12.00;;;5.73;;
5937;SDS011;2994;51.220;4.412;2023-04-25T03:58:11;12.17;;;6.93;;
5937;SDS011;2994;51.220;4.412;2023-04-25T04:00:37;9.17;;;4.83;;
5937;SDS011;2994;51.220;4.412;2023-04-25T04:03:05;8.30;;;4.03;;
5937;SDS011;2994;51.220;4.412;2023-04-25T04:05:30;7.30;;;4.27;;
5937;SDS011;2994;51.220;4.412;2023-04-25T04:07:57;6.50;;;4.00;;
5937;SDS011;2994;51.220;4.412;2023-04-25T04:10:23;7.63;;;5.17;;
5937;SDS011;2994;51.220;4.412;2023-04-25T04:12:48;8.30;;;4.30;;
5937;SDS011;2994;51.220;4.412;2023-04-25T04:15:14;8.90;;;4.40;;
5937;SDS011;2994;51.220;4.412;2023-04-25T04:17:39;11.70;;;3.30;;
5937;SDS011;2994;51.220;4.412;2023-04-25T04:20:08;6.53;;;3.80;;
5937;SDS011;2994;51.220;4.412;2023-04-25T04:22:33;5.10;;;3.30;;
5937;SDS011;2994;51.220;4.412;2023-04-25T04:24:59;6.50;;;3.37;;
5937;SDS011;2994;51.220;4.412;2023-04-25T04:27:25;5.57;;;3.40;;
5937;SDS011;2994;51.220;4.412;2023-04-25T04:29:51;5.00;;;3.30;;
5937;SDS011;2994;51.220;4.412;2023-04-25T04:32:21;5.73;;;3.77;;
5937;SDS011;2994;51.220;4.412;2023-04-25T04:34:48;4.10;;;3.33;;
5937;SDS011;2994;51.220;4.412;2023-04-25T04:37:13;5.97;;;3.63;;
5937;SDS011;2994;51.220;4.412;2023-04-25T04:39:42;6.57;;;3.67;;
5937;SDS011;2994;51.220;4.412;2023-04-25T04:42:08;3.83;;;3.50;;
5937;SDS011;2994;51.220;4.412;2023-04-25T04:44:33;10.77;;;4.40;;
5937;SDS011;2994;51.220;4.412;2023-04-25T04:46:59;6.70;;;5.03;;
5937;SDS011;2994;51.220;4.412;2023-04-25T04:49:25;6.10;;;3.93;;
5937;SDS011;2994;51.220;4.412;2023-04-25T04:51:51;8.23;;;4.40;;
5937;SDS011;2994;51.220;4.412;2023-04-25T04:54:17;6.80;;;3.80;;
5937;SDS011;2994;51.220;4.412;2023-04-25T04:56:42;6.30;;;4.33;;
5937;SDS011;2994;51.220;4.412;2023-04-25T04:59:08;7.00;;;4.60;;
5937;SDS011;2994;51.220;4.412;2023-04-25T05:01:34;9.47;;;4.67;;
5937;SDS011;2994;51.220;4.412;2023-04-25T05:04:02;8.17;;;4.27;;
5937;SDS011;2994;51.220;4.412;2023-04-25T05:06:28;8.57;;;4.60;;
5937;SDS011;2994;51.220;4.412;2023-04-25T05:08:54;8.80;;;4.00;;
5937;SDS011;2994;51.220;4.412;2023-04-25T05:11:21;6.37;;;4.60;;
5937;SDS011;2994;51.220;4.412;2023-04-25T05:13:48;10.00;;;5.17;;
5937;SDS011;2994;51.220;4.412;2023-04-25T05:16:14;9.07;;;4.53;;
5937;SDS011;2994;51.220;4.412;2023-04-25T05:18:40;8.43;;;5.00;;
5937;SDS011;2994;51.220;4.412;2023-04-25T05:21:05;9.87;;;4.40;;
5937;SDS011;2994;51.220;4.412;2023-04-25T05:23:32;7.07;;;5.63;;
5937;SDS011;2994;51.220;4.412;2023-04-25T05:25:58;7.70;;;4.40;;
5937;SDS011;2994;51.220;4.412;2023-04-25T05:28:24;10.17;;;4.93;;
5937;SDS011;2994;51.220;4.412;2023-04-25T05:30:49;6.67;;;5.00;;
5937;SDS011;2994;51.220;4.412;2023-04-25T05:33:15;6.83;;;4.90;;
5937;SDS011;2994;51.220;4.412;2023-04-25T05:35:41;6.07;;;3.97;;
5937;SDS011;2994;51.220;4.412;2023-04-25T05:38:06;7.10;;;3.70;;
5937;SDS011;2994;51.220;4.412;2023-04-25T05:40:32;8.77;;;4.60;;
5937;SDS011;2994;51.220;4.412;2023-04-25T05:42:57;12.40;;;5.93;;
5937;SDS011;2994;51.220;4.412;2023-04-25T05:45:23;9.60;;;5.00;;
5937;SDS011;2994;51.220;4.412;2023-04-25T05:47:48;10.50;;;3.90;;
5937;SDS011;2994;51.220;4.412;2023-04-25T05:50:14;8.60;;;3.97;;
5937;SDS011;2994;51.220;4.412;2023-04-25T05:52:39;6.77;;;4.50;;
5937;SDS011;2994;51.220;4.412;2023-04-25T05:55:05;8.10;;;4.10;;
5937;SDS011;2994;51.220;4.412;2023-04-25T05:57:30;6.70;;;3.80;;
5937;SDS011;2994;51.220;4.412;2023-04-25T05:59:56;9.10;;;4.60;;
5937;SDS011;2994;51.220;4.412;2023-04-25T06:02:22;6.63;;;3.97;;
5937;SDS011;2994;51.220;4.412;2023-04-25T06:04:49;8.63;;;4.90;;
5937;SDS011;2994;51.220;4.412;2023-04-25T06:07:15;5.90;;;3.90;;
5937;SDS011;2994;51.220;4.412;2023-04-25T06:12:15;5.80;;;3.70;;
5937;SDS011;2994;51.220;4.412;2023-04-25T06:14:41;5.53;;;3.90;;
5937;SDS011;2994;51.220;4.412;2023-04-25T06:17:06;7.50;;;3.43;;
5937;SDS011;2994;51.220;4.412;2023-04-25T06:19:33;10.73;;;4.40;;
5937;SDS011;2994;51.220;4.412;2023-04-25T06:22:00;7.07;;;5.17;;
5937;SDS011;2994;51.220;4.412;2023-04-25T06:24:26;6.50;;;3.80;;
5937;SDS011;2994;51.220;4.412;2023-04-25T06:26:51;6.37;;;3.40;;
5937;SDS011;2994;51.220;4.412;2023-04-25T06:29:17;6.60;;;3.53;;
5937;SDS011;2994;51.220;4.412;2023-04-25T06:31:43;9.20;;;3.30;;
5937;SDS011;2994;51.220;4.412;2023-04-25T06:34:09;9.53;;;3.03;;
5937;SDS011;2994;51.220;4.412;2023-04-25T06:36:34;5.23;;;2.90;;
5937;SDS011;2994;51.220;4.412;2023-04-25T06:38:59;5.10;;;3.40;;
5937;SDS011;2994;51.220;4.412;2023-04-25T06:41:25;7.53;;;3.83;;
5937;SDS011;2994;51.220;4.412;2023-04-25T06:43:50;6.60;;;3.50;;
5937;SDS011;2994;51.220;4.412;2023-04-25T06:46:16;3.80;;;2.90;;
5937;SDS011;2994;51.220;4.412;2023-04-25T06:48:41;5.07;;;2.73;;
5937;SDS011;2994;51.220;4.412;2023-04-25T06:51:07;6.77;;;3.40;;
5937;SDS011;2994;51.220;4.412;2023-04-25T06:53:32;8.00;;;3.57;;
5937;SDS011;2994;51.220;4.412;2023-04-25T06:55:58;5.73;;;3.53;;
5937;SDS011;2994;51.220;4.412;2023-04-25T06:58:23;6.13;;;2.80;;
5937;SDS011;2994;51.220;4.412;2023-04-25T07:00:48;5.43;;;3.07;;
5937;SDS011;2994;51.220;4.412;2023-04-25T07:03:14;5.53;;;2.97;;
5937;SDS011;2994;51.220;4.412;2023-04-25T07:05:39;4.40;;;3.27;;
5937;SDS011;2994;51.220;4.412;2023-04-25T07:08:05;5.57;;;3.37;;
5937;SDS011;2994;51.220;4.412;2023-04-25T07:10:30;6.30;;;3.50;;
5937;SDS011;2994;51.220;4.412;2023-04-25T07:12:56;6.77;;;3.33;;
5937;SDS011;2994;51.220;4.412;2023-04-25T07:15:21;5.20;;;3.17;;
5937;SDS011;2994;51.220;4.412;2023-04-25T07:17:47;6.17;;;3.70;;
5937;SDS011;2994;51.220;4.412;2023-04-25T07:20:12;7.33;;;3.23;;
5937;SDS011;2994;51.220;4.412;2023-04-25T07:22:38;3.83;;;2.80;;
5937;SDS011;2994;51.220;4.412;2023-04-25T07:25:04;7.27;;;3.23;;
5937;SDS011;2994;51.220;4.412;2023-04-25T07:27:30;5.13;;;3.03;;
5937;SDS011;2994;51.220;4.412;2023-04-25T07:29:56;4.87;;;3.17;;
5937;SDS011;2994;51.220;4.412;2023-04-25T07:32:21;8.30;;;2.73;;
5937;SDS011;2994;51.220;4.412;2023-04-25T07:34:47;9.23;;;3.80;;
5937;SDS011;2994;51.220;4.412;2023-04-25T07:37:12;6.17;;;3.63;;
5937;SDS011;2994;51.220;4.412;2023-04-25T07:39:39;4.90;;;2.93;;
5937;SDS011;2994;51.220;4.412;2023-04-25T07:42:05;6.87;;;3.83;;
5937;SDS011;2994;51.220;4.412;2023-04-25T07:44:33;6.63;;;2.30;;
5937;SDS011;2994;51.220;4.412;2023-04-25T07:47:06;8.77;;;3.83;;
5937;SDS011;2994;51.220;4.412;2023-04-25T07:49:35;5.73;;;3.30;;
5937;SDS011;2994;51.220;4.412;2023-04-25T07:52:01;6.03;;;2.93;;
5937;SDS011;2994;51.220;4.412;2023-04-25T07:54:27;9.43;;;2.97;;
5937;SDS011;2994;51.220;4.412;2023-04-25T07:56:53;6.07;;;3.67;;
5937;SDS011;2994;51.220;4.412;2023-04-25T07:59:19;12.30;;;3.17;;
5937;SDS011;2994;51.220;4.412;2023-04-25T08:01:45;2.93;;;2.20;;
5937;SDS011;2994;51.220;4.412;2023-04-25T08:04:10;5.67;;;2.50;;
5937;SDS011;2994;51.220;4.412;2023-04-25T08:06:36;3.90;;;1.83;;
5937;SDS011;2994;51.220;4.412;2023-04-25T08:09:01;3.90;;;1.77;;
5937;SDS011;2994;51.220;4.412;2023-04-25T08:11:28;5.40;;;2.40;;
5937;SDS011;2994;51.220;4.412;2023-04-25T08:13:53;4.70;;;1.77;;
5937;SDS011;2994;51.220;4.412;2023-04-25T08:16:19;4.50;;;2.20;;
5937;SDS011;2994;51.220;4.412;2023-04-25T08:18:44;4.53;;;2.20;;
5937;SDS011;2994;51.220;4.412;2023-04-25T08:21:10;1.93;;;1.77;;
5937;SDS011;2994;51.220;4.412;2023-04-25T08:23:36;5.87;;;2.00;;
5937;SDS011;2994;51.220;4.412;2023-04-25T08:26:02;3.90;;;1.80;;
5937;SDS011;2994;51.220;4.412;2023-04-25T08:28:28;2.90;;;2.03;;
5937;SDS011;2994;51.220;4.412;2023-04-25T08:30:53;5.30;;;2.23;;
5937;SDS011;2994;51.220;4.412;2023-04-25T08:33:19;1.93;;;1.63;;
5937;SDS011;2994;51.220;4.412;2023-04-25T08:35:44;5.20;;;1.80;;
5937;SDS011;2994;51.220;4.412;2023-04-25T08:38:10;7.60;;;2.00;;
5937;SDS011;2994;51.220;4.412;2023-04-25T08:40:37;5.83;;;1.93;;
5937;SDS011;2994;51.220;4.412;2023-04-25T08:43:05;3.03;;;2.10;;
5937;SDS011;2994;51.220;4.412;2023-04-25T08:45:36;8.63;;;2.43;;
5937;SDS011;2994;51.220;4.412;2023-04-25T08:48:04;5.63;;;3.00;;
5937;SDS011;2994;51.220;4.412;2023-04-25T08:50:35;7.07;;;2.07;;
5937;SDS011;2994;51.220;4.412;2023-04-25T08:53:02;4.50;;;1.80;;
5937;SDS011;2994;51.220;4.412;2023-04-25T08:55:30;4.07;;;2.03;;
5937;SDS011;2994;51.220;4.412;2023-04-25T08:57:56;3.90;;;1.80;;
5937;SDS011;2994;51.220;4.412;2023-04-25T09:00:24;3.43;;;1.87;;
5937;SDS011;2994;51.220;4.412;2023-04-25T09:02:50;2.00;;;1.67;;
5937;SDS011;2994;51.220;4.412;2023-04-25T09:05:17;4.40;;;2.40;;
5937;SDS011;2994;51.220;4.412;2023-04-25T09:07:43;2.90;;;1.73;;
5937;SDS011;2994;51.220;4.412;2023-04-25T09:10:09;2.90;;;2.00;;
5937;SDS011;2994;51.220;4.412;2023-04-25T09:12:34;5.67;;;1.97;;
5937;SDS011;2994;51.220;4.412;2023-04-25T09:15:05;3.47;;;1.50;;
5937;SDS011;2994;51.220;4.412;2023-04-25T09:17:31;3.70;;;1.43;;
5937;SDS011;2994;51.220;4.412;2023-04-25T09:20:05;2.03;;;1.50;;
5937;SDS011;2994;51.220;4.412;2023-04-25T09:22:40;4.37;;;1.97;;
5937;SDS011;2994;51.220;4.412;2023-04-25T09:25:12;4.50;;;2.07;;
5937;SDS011;2994;51.220;4.412;2023-04-25T09:27:50;1.87;;;1.27;;
5937;SDS011;2994;51.220;4.412;2023-04-25T09:30:17;3.37;;;2.20;;
5937;SDS011;2994;51.220;4.412;2023-04-25T09:32:43;2.90;;;1.57;;
5937;SDS011;2994;51.220;4.412;2023-04-25T09:35:08;3.80;;;1.80;;
5937;SDS011;2994;51.220;4.412;2023-04-25T09:37:34;4.10;;;1.77;;
5937;SDS011;2994;51.220;4.412;2023-04-25T09:40:04;2.80;;;1.43;;
5937;SDS011;2994;51.220;4.412;2023-04-25T09:42:31;3.87;;;1.80;;
5937;SDS011;2994;51.220;4.412;2023-04-25T09:44:59;3.47;;;1.03;;
5937;SDS011;2994;51.220;4.412;2023-04-25T09:47:27;1.50;;;1.30;;
5937;SDS011;2994;51.220;4.412;2023-04-25T09:49:53;3.97;;;1.60;;
5937;SDS011;2994;51.220;4.412;2023-04-25T09:52:20;7.13;;;1.70;;
5937;SDS011;2994;51.220;4.412;2023-04-25T09:54:48;7.07;;;2.00;;
5937;SDS011;2994;51.220;4.412;2023-04-25T10:00:00;2.23;;;1.80;;
5937;SDS011;2994;51.220;4.412;2023-04-25T10:02:26;4.10;;;1.77;;
5937;SDS011;2994;51.220;4.412;2023-04-25T10:04:53;3.23;;;1.90;;
5937;SDS011;2994;51.220;4.412;2023-04-25T10:07:20;2.50;;;1.60;;
5937;SDS011;2994;51.220;4.412;2023-04-25T10:09:50;4.37;;;1.60;;
5937;SDS011;2994;51.220;4.412;2023-04-25T10:12:24;4.00;;;1.53;;
5937;SDS011;2994;51.220;4.412;2023-04-25T10:14:52;2.90;;;1.87;;
5937;SDS011;2994;51.220;4.412;2023-04-25T10:17:17;3.17;;;1.80;;
5937;SDS011;2994;51.220;4.412;2023-04-25T10:19:45;3.07;;;2.30;;
5937;SDS011;2994;51.220;4.412;2023-04-25T10:24:43;5.27;;;2.10;;
5937;SDS011;2994;51.220;4.412;2023-04-25T10:27:11;4.30;;;1.50;;
5937;SDS011;2994;51.220;4.412;2023-04-25T10:29:37;5.87;;;2.30;;
5937;SDS011;2994;51.220;4.412;2023-04-25T10:32:03;4.37;;;1.83;;
5937;SDS011;2994;51.220;4.412;2023-04-25T10:34:42;2.30;;;1.50;;
5937;SDS011;2994;51.220;4.412;2023-04-25T10:37:12;3.10;;;2.03;;
5937;SDS011;2994;51.220;4.412;2023-04-25T10:39:39;4.00;;;1.93;;
5937;SDS011;2994;51.220;4.412;2023-04-25T10:42:06;5.63;;;2.63;;
5937;SDS011;2994;51.220;4.412;2023-04-25T10:44:32;2.73;;;1.87;;
5937;SDS011;2994;51.220;4.412;2023-04-25T10:46:59;3.20;;;2.10;;
5937;SDS011;2994;51.220;4.412;2023-04-25T10:49:30;2.80;;;2.00;;
5937;SDS011;2994;51.220;4.412;2023-04-25T10:52:17;3.43;;;1.90;;
5937;SDS011;2994;51.220;4.412;2023-04-25T10:54:53;4.97;;;2.37;;
5937;SDS011;2994;51.220;4.412;2023-04-25T10:57:27;5.10;;;2.03;;
5937;SDS011;2994;51.220;4.412;2023-04-25T11:00:00;3.83;;;1.60;;
5937;SDS011;2994;51.220;4.412;2023-04-25T11:05:19;4.80;;;1.70;;
5937;SDS011;2994;51.220;4.412;2023-04-25T11:10:17;5.00;;;1.67;;
5937;SDS011;2994;51.220;4.412;2023-04-25T11:12:44;6.20;;;1.70;;
5937;SDS011;2994;51.220;4.412;2023-04-25T11:15:11;5.80;;;1.50;;
5937;SDS011;2994;51.220;4.412;2023-04-25T11:17:36;3.43;;;1.60;;
5937;SDS011;2994;51.220;4.412;2023-04-25T11:20:04;5.93;;;2.30;;
5937;SDS011;2994;51.220;4.412;2023-04-25T11:22:36;1.97;;;0.90;;
5937;SDS011;2994;51.220;4.412;2023-04-25T11:25:06;2.70;;;1.57;;
5937;SDS011;2994;51.220;4.412;2023-04-25T11:27:48;1.80;;;1.30;;
5937;SDS011;2994;51.220;4.412;2023-04-25T11:30:16;2.93;;;1.53;;
5937;SDS011;2994;51.220;4.412;2023-04-25T11:32:42;4.87;;;1.73;;
5937;SDS011;2994;51.220;4.412;2023-04-25T11:35:08;4.70;;;1.60;;
5937;SDS011;2994;51.220;4.412;2023-04-25T11:37:34;3.70;;;1.73;;
5937;SDS011;2994;51.220;4.412;2023-04-25T11:40:02;4.33;;;1.60;;
5937;SDS011;2994;51.220;4.412;2023-04-25T11:42:28;2.80;;;1.70;;
5937;SDS011;2994;51.220;4.412;2023-04-25T11:44:53;8.17;;;1.60;;
5937;SDS011;2994;51.220;4.412;2023-04-25T11:47:19;3.57;;;1.70;;
5937;SDS011;2994;51.220;4.412;2023-04-25T11:49:44;4.13;;;1.90;;
5937;SDS011;2994;51.220;4.412;2023-04-25T11:52:10;3.13;;;1.53;;
5937;SDS011;2994;51.220;4.412;2023-04-25T11:54:36;6.70;;;1.60;;
5937;SDS011;2994;51.220;4.412;2023-04-25T11:57:02;7.20;;;1.80;;
5937;SDS011;2994;51.220;4.412;2023-04-25T11:59:28;7.00;;;1.57;;
5937;SDS011;2994;51.220;4.412;2023-04-25T12:01:54;3.00;;;1.90;;
5937;SDS011;2994;51.220;4.412;2023-04-25T12:04:20;3.90;;;1.40;;
5937;SDS011;2994;51.220;4.412;2023-04-25T12:06:48;2.30;;;1.70;;
5937;SDS011;2994;51.220;4.412;2023-04-25T12:09:19;2.80;;;1.53;;
5937;SDS011;2994;51.220;4.412;2023-04-25T12:11:53;3.17;;;1.77;;
5937;SDS011;2994;51.220;4.412;2023-04-25T12:14:27;2.33;;;1.30;;
5937;SDS011;2994;51.220;4.412;2023-04-25T12:16:55;4.30;;;1.93;;
5937;SDS011;2994;51.220;4.412;2023-04-25T12:19:22;3.30;;;1.80;;
5937;SDS011;2994;51.220;4.412;2023-04-25T12:21:48;2.50;;;1.40;;
5937;SDS011;2994;51.220;4.412;2023-04-25T12:24:21;2.90;;;1.70;;
5937;SDS011;2994;51.220;4.412;2023-04-25T12:29:20;6.00;;;3.23;;
5937;SDS011;2994;51.220;4.412;2023-04-25T12:31:47;2.77;;;1.37;;
5937;SDS011;2994;51.220;4.412;2023-04-25T12:34:12;4.13;;;1.20;;
5937;SDS011;2994;51.220;4.412;2023-04-25T12:36:38;4.53;;;1.90;;
5937;SDS011;2994;51.220;4.412;2023-04-25T12:39:04;4.40;;;1.90;;
5937;SDS011;2994;51.220;4.412;2023-04-25T12:41:30;3.53;;;1.80;;
5937;SDS011;2994;51.220;4.412;2023-04-25T12:43:55;2.60;;;1.70;;
5937;SDS011;2994;51.220;4.412;2023-04-25T12:46:21;3.63;;;1.73;;
5937;SDS011;2994;51.220;4.412;2023-04-25T12:48:48;3.93;;;1.83;;
5937;SDS011;2994;51.220;4.412;2023-04-25T12:51:13;7.57;;;2.07;;
5937;SDS011;2994;51.220;4.412;2023-04-25T12:53:39;4.00;;;2.37;;
5937;SDS011;2994;51.220;4.412;2023-04-25T12:56:06;3.47;;;1.67;;
5937;SDS011;2994;51.220;4.412;2023-04-25T12:58:32;4.20;;;1.57;;
5937;SDS011;2994;51.220;4.412;2023-04-25T13:00:58;1.73;;;1.23;;
5937;SDS011;2994;51.220;4.412;2023-04-25T13:03:24;5.40;;;1.57;;
5937;SDS011;2994;51.220;4.412;2023-04-25T13:05:50;2.47;;;1.13;;
5937;SDS011;2994;51.220;4.412;2023-04-25T13:08:17;2.03;;;1.27;;
5937;SDS011;2994;51.220;4.412;2023-04-25T13:10:47;2.13;;;1.30;;
5937;SDS011;2994;51.220;4.412;2023-04-25T13:13:12;2.23;;;1.53;;
5937;SDS011;2994;51.220;4.412;2023-04-25T13:15:38;2.40;;;1.50;;
5937;SDS011;2994;51.220;4.412;2023-04-25T13:18:04;2.67;;;1.43;;
5937;SDS011;2994;51.220;4.412;2023-04-25T13:20:30;2.80;;;1.47;;
5937;SDS011;2994;51.220;4.412;2023-04-25T13:22:56;3.57;;;1.30;;
5937;SDS011;2994;51.220;4.412;2023-04-25T13:25:22;2.00;;;1.37;;
5937;SDS011;2994;51.220;4.412;2023-04-25T13:27:47;2.73;;;1.40;;
5937;SDS011;2994;51.220;4.412;2023-04-25T13:30:13;4.87;;;1.77;;
5937;SDS011;2994;51.220;4.412;2023-04-25T13:32:38;3.00;;;1.50;;
5937;SDS011;2994;51.220;4.412;2023-04-25T13:35:05;3.20;;;1.70;;
5937;SDS011;2994;51.220;4.412;2023-04-25T13:37:36;2.67;;;1.80;;
5937;SDS011;2994;51.220;4.412;2023-04-25T13:40:02;2.70;;;1.90;;
5937;SDS011;2994;51.220;4.412;2023-04-25T13:42:30;4.83;;;1.70;;
5937;SDS011;2994;51.220;4.412;2023-04-25T13:44:56;1.93;;;1.17;;
5937;SDS011;2994;51.220;4.412;2023-04-25T13:47:21;5.33;;;2.33;;
5937;SDS011;2994;51.220;4.412;2023-04-25T13:49:48;4.80;;;2.07;;
5937;SDS011;2994;51.220;4.412;2023-04-25T13:52:13;3.87;;;1.43;;
5937;SDS011;2994;51.220;4.412;2023-04-25T13:54:39;2.20;;;1.30;;
5937;SDS011;2994;51.220;4.412;2023-04-25T13:57:05;4.70;;;1.47;;
5937;SDS011;2994;51.220;4.412;2023-04-25T13:59:31;1.83;;;1.50;;
5937;SDS011;2994;51.220;4.412;2023-04-25T14:01:57;2.93;;;1.67;;
5937;SDS011;2994;51.220;4.412;2023-04-25T14:04:23;2.87;;;1.80;;
5937;SDS011;2994;51.220;4.412;2023-04-25T14:06:48;1.70;;;1.47;;
5937;SDS011;2994;51.220;4.412;2023-04-25T14:09:14;3.10;;;1.17;;
5937;SDS011;2994;51.220;4.412;2023-04-25T14:11:40;3.20;;;1.23;;
5937;SDS011;2994;51.220;4.412;2023-04-25T14:14:06;5.20;;;1.70;;
5937;SDS011;2994;51.220;4.412;2023-04-25T14:16:31;4.53;;;1.50;;
5937;SDS011;2994;51.220;4.412;2023-04-25T14:19:00;2.40;;;1.47;;
5937;SDS011;2994;51.220;4.412;2023-04-25T14:21:26;3.83;;;2.27;;
5937;SDS011;2994;51.220;4.412;2023-04-25T14:23:53;3.10;;;1.60;;
5937;SDS011;2994;51.220;4.412;2023-04-25T14:26:19;9.40;;;1.93;;
5937;SDS011;2994;51.220;4.412;2023-04-25T14:28:44;2.47;;;1.27;;
5937;SDS011;2994;51.220;4.412;2023-04-25T14:31:11;3.67;;;1.90;;
5937;SDS011;2994;51.220;4.412;2023-04-25T14:33:36;4.33;;;2.33;;
5937;SDS011;2994;51.220;4.412;2023-04-25T14:36:04;4.00;;;1.63;;
5937;SDS011;2994;51.220;4.412;2023-04-25T14:38:30;2.23;;;1.60;;
5937;SDS011;2994;51.220;4.412;2023-04-25T14:40:56;1.67;;;1.10;;
5937;SDS011;2994;51.220;4.412;2023-04-25T14:43:21;4.53;;;2.23;;
5937;SDS011;2994;51.220;4.412;2023-04-25T14:45:47;3.03;;;1.70;;
5937;SDS011;2994;51.220;4.412;2023-04-25T14:48:12;6.77;;;2.30;;
5937;SDS011;2994;51.220;4.412;2023-04-25T14:50:38;4.93;;;2.00;;
5937;SDS011;2994;51.220;4.412;2023-04-25T14:53:03;3.50;;;2.07;;
5937;SDS011;2994;51.220;4.412;2023-04-25T14:55:29;3.50;;;1.43;;
5937;SDS011;2994;51.220;4.412;2023-04-25T14:57:54;4.20;;;2.07;;
5937;SDS011;2994;51.220;4.412;2023-04-25T15:00:20;3.00;;;1.40;;
5937;SDS011;2994;51.220;4.412;2023-04-25T15:02:47;3.30;;;2.27;;
5937;SDS011;2994;51.220;4.412;2023-04-25T15:05:13;3.43;;;1.83;;
5937;SDS011;2994;51.220;4.412;2023-04-25T15:07:39;3.50;;;1.33;;
5937;SDS011;2994;51.220;4.412;2023-04-25T15:10:08;2.60;;;1.50;;
5937;SDS011;2994;51.220;4.412;2023-04-25T15:12:38;2.77;;;2.00;;
5937;SDS011;2994;51.220;4.412;2023-04-25T15:15:05;2.97;;;1.90;;
5937;SDS011;2994;51.220;4.412;2023-04-25T15:17:36;7.00;;;1.80;;
5937;SDS011;2994;51.220;4.412;2023-04-25T15:20:02;2.70;;;1.90;;
5937;SDS011;2994;51.220;4.412;2023-04-25T15:22:30;2.07;;;1.50;;
5937;SDS011;2994;51.220;4.412;2023-04-25T15:24:55;5.57;;;2.27;;
5937;SDS011;2994;51.220;4.412;2023-04-25T15:27:21;1.33;;;1.23;;